Time;durP1;ratioP1;P1;durP2;ratioP2;P2;SDS_P1;SDS_P2;PMS_P1;PMS_P2;Temp;Humidity;BMP_temperature;BMP_pressure;BME280_temperature;BME280_humidity;BME280_pressure;Samples;Min_cycle;Max_cycle;Signal;HPM_P1;HPM_P2
2023/02/11 00:01:10;;;;;;;31.25;3.15;;;7.00;99.90;;;;;;4997272;28;20061;-72
2023/02/11 00:03:37;;;;;;;9.38;2.08;;;7.10;99.90;;;;;;4996778;28;20034;-72
2023/02/11 00:06:05;;;;;;;13.88;1.58;;;7.00;99.90;;;;;;4984192;28;20170;-72
2023/02/11 00:08:30;;;;;;;17.48;2.33;;;7.00;99.90;;;;;;4971397;28;20042;-74
2023/02/11 00:10:57;;;;;;;17.77;2.97;;;7.00;99.90;;;;;;4989827;28;20053;-73
2023/02/11 00:13:23;;;;;;;24.27;2.38;;;7.00;99.90;;;;;;4971034;28;20053;-73
2023/02/11 00:15:49;;;;;;;12.07;2.30;;;7.00;99.90;;;;;;4989020;28;20046;-72
2023/02/11 00:18:15;;;;;;;21.52;2.40;;;7.00;99.90;;;;;;4993474;28;20051;-73
2023/02/11 00:20:41;;;;;;;12.45;2.30;;;6.90;99.90;;;;;;4995405;28;20038;-72
2023/02/11 00:23:07;;;;;;;14.13;1.67;;;6.90;99.90;;;;;;4995473;28;20041;-72
2023/02/11 00:25:33;;;;;;;18.23;3.05;;;6.90;99.90;;;;;;4991123;28;20042;-72
2023/02/11 00:27:59;;;;;;;14.38;2.33;;;6.90;99.90;;;;;;4974229;28;20403;-73
2023/02/11 00:30:24;;;;;;;10.88;2.00;;;6.80;99.90;;;;;;4988208;28;20046;-73
2023/02/11 00:32:50;;;;;;;17.23;2.28;;;6.90;99.90;;;;;;5000910;28;20042;-72
2023/02/11 00:35:16;;;;;;;8.50;1.50;;;6.80;99.90;;;;;;4996442;28;20053;-72
2023/02/11 00:37:41;;;;;;;12.65;2.45;;;6.80;99.90;;;;;;4970999;28;20054;-73
2023/02/11 00:40:07;;;;;;;26.38;4.00;;;6.80;99.90;;;;;;4970664;28;20554;-73
2023/02/11 00:42:34;;;;;;;12.02;2.08;;;6.80;99.90;;;;;;4982431;28;20048;-73
2023/02/11 00:45:01;;;;;;;21.30;2.50;;;6.80;99.90;;;;;;4998946;28;20138;-73
2023/02/11 00:47:26;;;;;;;25.75;1.95;;;6.80;99.90;;;;;;4996301;28;20034;-73
2023/02/11 00:49:52;;;;;;;16.88;1.95;;;6.80;99.90;;;;;;4998840;28;20411;-73
2023/02/11 00:52:17;;;;;;;9.88;1.83;;;6.80;99.90;;;;;;4999968;28;20069;-73
2023/02/11 00:54:43;;;;;;;16.92;2.15;;;6.90;99.90;;;;;;4981898;28;20041;-72
2023/02/11 00:57:09;;;;;;;10.35;1.98;;;6.80;99.90;;;;;;4996216;28;20033;-71
2023/02/11 00:59:34;;;;;;;17.92;3.03;;;6.80;99.90;;;;;;4992781;28;20457;-72
2023/02/11 01:02:00;;;;;;;17.58;3.67;;;6.90;99.90;;;;;;4980648;28;20038;-74
2023/02/11 01:04:25;;;;;;;10.52;1.35;;;6.90;99.90;;;;;;4979340;28;20484;-72
2023/02/11 01:06:51;;;;;;;23.80;2.60;;;6.80;99.90;;;;;;4994043;28;20112;-72
2023/02/11 01:09:17;;;;;;;11.88;2.58;;;6.90;99.90;;;;;;4998042;28;20736;-71
2023/02/11 01:11:43;;;;;;;21.42;3.22;;;6.80;99.90;;;;;;5000208;28;20045;-72
2023/02/11 01:14:08;;;;;;;15.95;2.15;;;6.80;99.90;;;;;;4970285;28;20132;-73
2023/02/11 01:16:34;;;;;;;14.73;2.38;;;6.90;99.90;;;;;;4992724;28;20039;-73
2023/02/11 01:19:00;;;;;;;17.85;3.05;;;6.80;99.90;;;;;;4994364;28;20110;-73
2023/02/11 01:21:25;;;;;;;8.57;2.72;;;6.80;99.90;;;;;;4994579;28;20434;-71
2023/02/11 01:23:51;;;;;;;9.98;2.38;;;6.80;99.90;;;;;;5002306;28;20068;-73
2023/02/11 01:26:17;;;;;;;16.40;3.17;;;6.80;99.90;;;;;;4999062;28;20116;-74
2023/02/11 01:28:43;;;;;;;31.42;4.10;;;6.80;99.90;;;;;;4993134;28;20053;-72
2023/02/11 01:31:08;;;;;;;6.70;1.85;;;6.80;99.90;;;;;;4978456;28;20038;-72
2023/02/11 01:33:34;;;;;;;23.15;2.88;;;6.80;99.90;;;;;;4988933;28;20113;-73
2023/02/11 01:36:02;;;;;;;8.65;1.90;;;6.70;99.90;;;;;;4996688;28;20426;-72
2023/02/11 01:38:28;;;;;;;20.45;3.33;;;6.70;99.90;;;;;;4973329;28;20038;-75
2023/02/11 01:40:55;;;;;;;17.33;3.97;;;6.70;99.90;;;;;;4986240;28;20041;-73
2023/02/11 01:43:22;;;;;;;12.65;1.80;;;6.70;99.90;;;;;;4998619;28;20077;-73
2023/02/11 01:45:47;;;;;;;15.27;2.85;;;6.70;99.90;;;;;;5005665;28;20037;-73
2023/02/11 01:48:18;;;;;;;13.63;1.80;;;6.70;99.90;;;;;;4987161;28;20434;-72
2023/02/11 01:50:46;;;;;;;17.05;2.38;;;6.60;99.90;;;;;;4988681;28;20033;-72
2023/02/11 01:58:44;;;;;;;10.30;1.58;;;6.50;99.90;;;;;;4970611;28;20086;-72
2023/02/11 02:01:14;;;;;;;16.33;3.88;;;6.40;99.90;;;;;;4973634;28;20398;-72
2023/02/11 02:03:44;;;;;;;10.73;2.30;;;6.40;99.90;;;;;;4968070;28;20046;-74
2023/02/11 02:06:18;;;;;;;18.75;3.92;;;6.40;99.90;;;;;;5001650;28;20035;-73
2023/02/11 02:08:54;;;;;;;13.48;2.47;;;6.30;99.90;;;;;;4994288;28;20533;-75
2023/02/11 02:11:20;;;;;;;15.65;2.05;;;6.20;99.90;;;;;;4961875;28;20054;-74
2023/02/11 02:13:45;;;;;;;12.20;2.55;;;6.20;99.90;;;;;;4976022;28;20061;-74
2023/02/11 02:16:13;;;;;;;16.60;2.67;;;6.20;99.90;;;;;;4968228;28;20122;-72
2023/02/11 02:18:47;;;;;;;12.45;2.78;;;6.10;99.90;;;;;;4968599;28;20031;-72
2023/02/11 02:21:34;;;;;;;12.65;2.60;;;6.10;99.90;;;;;;4968972;28;20039;-72
2023/02/11 02:24:28;;;;;;;14.50;2.05;;;6.10;99.90;;;;;;4998820;28;20410;-72
2023/02/11 02:27:01;;;;;;;17.48;2.58;;;6.00;99.90;;;;;;4999091;28;20113;-72
2023/02/11 02:29:52;;;;;;;9.38;2.60;;;6.00;99.90;;;;;;4992877;28;20046;-73
2023/02/11 02:32:36;;;;;;;11.05;2.33;;;6.00;99.90;;;;;;4985858;28;20459;-72
2023/02/11 02:35:34;;;;;;;17.52;3.10;;;6.00;99.90;;;;;;4990083;28;20124;-73
2023/02/11 02:38:07;;;;;;;11.18;2.15;;;5.90;99.90;;;;;;4983755;28;20049;-74
2023/02/11 02:40:45;;;;;;;9.82;1.85;;;5.90;99.90;;;;;;4977530;28;20406;-75
2023/02/11 02:43:12;;;;;;;15.80;2.65;;;5.80;99.90;;;;;;4981843;28;20066;-72
2023/02/11 02:45:38;;;;;;;19.95;2.42;;;5.80;99.90;;;;;;4985915;28;20038;-73
2023/02/11 02:48:03;;;;;;;9.02;2.75;;;5.70;99.90;;;;;;4971870;28;20031;-75
2023/02/11 02:50:35;;;;;;;15.55;2.58;;;5.70;99.90;;;;;;4978194;28;20026;-71
2023/02/11 02:53:28;;;;;;;17.17;3.58;;;5.70;99.90;;;;;;4978190;28;20085;-72
2023/02/11 02:56:09;;;;;;;12.35;2.22;;;5.60;99.90;;;;;;4964834;28;20034;-72
2023/02/11 02:58:34;;;;;;;15.07;2.20;;;5.60;99.90;;;;;;4987762;28;20035;-72
2023/02/11 03:01:13;;;;;;;16.33;3.33;;;5.70;99.90;;;;;;4980082;28;20054;-73
2023/02/11 03:03:48;;;;;;;9.48;2.10;;;5.60;99.90;;;;;;4971586;28;20039;-72
2023/02/11 03:06:29;;;;;;;11.82;1.95;;;5.60;99.90;;;;;;4952154;28;20122;-74
2023/02/11 03:09:44;;;;;;;15.68;2.17;;;5.50;99.90;;;;;;4978636;28;20047;-74
2023/02/11 03:12:12;;;;;;;19.48;2.85;;;5.50;99.90;;;;;;4885635;29;20079;-72
2023/02/11 03:14:39;;;;;;;10.20;1.98;;;5.50;99.90;;;;;;4899846;29;20046;-72
2023/02/11 03:17:07;;;;;;;26.15;2.80;;;5.40;99.90;;;;;;4952880;28;20035;-72
2023/02/11 03:19:40;;;;;;;12.82;2.88;;;5.40;99.90;;;;;;4978462;28;20034;-73
2023/02/11 03:22:15;;;;;;;19.42;3.25;;;5.50;99.90;;;;;;4971142;28;20834;-73
2023/02/11 03:24:41;;;;;;;12.90;3.10;;;5.40;99.90;;;;;;4962349;28;20496;-72
2023/02/11 03:27:24;;;;;;;23.20;2.83;;;5.40;99.90;;;;;;4981800;28;20038;-72
2023/02/11 03:30:30;;;;;;;7.93;2.58;;;5.40;99.90;;;;;;4966671;28;20070;-72
2023/02/11 03:33:11;;;;;;;20.88;5.25;;;5.40;99.90;;;;;;4975164;28;20034;-72
2023/02/11 03:35:48;;;;;;;15.10;3.35;;;5.40;99.90;;;;;;4993416;28;20038;-73
2023/02/11 03:38:20;;;;;;;13.35;3.70;;;5.30;99.90;;;;;;4980542;28;20063;-73
2023/02/11 03:40:46;;;;;;;10.27;2.75;;;5.30;99.90;;;;;;4980263;28;20035;-72
2023/02/11 03:43:19;;;;;;;15.88;4.07;;;5.30;99.90;;;;;;4969675;28;20053;-73
2023/02/11 03:45:47;;;;;;;25.50;4.35;;;5.30;99.90;;;;;;4984135;28;20029;-73
2023/02/11 03:48:20;;;;;;;16.98;3.38;;;5.20;99.90;;;;;;4969049;28;20118;-72
2023/02/11 03:50:48;;;;;;;17.30;4.22;;;5.10;99.90;;;;;;4987118;28;20038;-72
2023/02/11 03:53:15;;;;;;;28.55;5.22;;;5.10;99.90;;;;;;4975613;28;20407;-72
2023/02/11 03:55:42;;;;;;;20.25;3.65;;;5.20;99.90;;;;;;4979441;28;20035;-73
2023/02/11 03:58:08;;;;;;;16.00;3.55;;;5.20;99.90;;;;;;4975890;28;20094;-72
2023/02/11 04:00:38;;;;;;;25.67;4.50;;;5.20;99.90;;;;;;4985201;28;20035;-73
2023/02/11 04:03:05;;;;;;;21.63;4.80;;;5.20;99.90;;;;;;4978858;28;20066;-73
2023/02/11 04:05:31;;;;;;;24.52;4.47;;;5.20;99.90;;;;;;4970046;28;20137;-73
2023/02/11 04:07:56;;;;;;;21.20;4.43;;;5.20;99.90;;;;;;4977913;28;20126;-73
2023/02/11 04:10:22;;;;;;;18.58;4.45;;;5.20;99.90;;;;;;4975372;28;20034;-74
2023/02/11 04:12:48;;;;;;;26.20;3.95;;;5.20;99.90;;;;;;4987548;28;20069;-73
2023/02/11 04:15:13;;;;;;;23.48;4.78;;;5.20;99.90;;;;;;4977886;28;20059;-74
2023/02/11 04:17:40;;;;;;;19.23;5.90;;;5.20;99.90;;;;;;4969222;28;20050;-73
2023/02/11 04:20:06;;;;;;;21.35;6.20;;;5.20;99.90;;;;;;4985185;28;20118;-71
2023/02/11 04:22:31;;;;;;;18.67;4.38;;;5.20;99.90;;;;;;4980532;28;20127;-74
2023/02/11 04:24:57;;;;;;;17.92;4.18;;;5.20;99.90;;;;;;4968160;28;20411;-73
2023/02/11 04:27:22;;;;;;;20.38;4.20;;;5.20;99.90;;;;;;4976452;28;20093;-72
2023/02/11 04:29:48;;;;;;;23.83;5.68;;;5.20;99.90;;;;;;4969592;28;20059;-72
2023/02/11 04:32:14;;;;;;;25.80;4.47;;;5.30;99.90;;;;;;4975459;28;20046;-72
2023/02/11 04:34:40;;;;;;;14.38;3.50;;;5.30;99.90;;;;;;4969109;28;20514;-72
2023/02/11 04:37:06;;;;;;;20.42;3.78;;;5.40;99.90;;;;;;4968337;28;20039;-74
2023/02/11 04:39:31;;;;;;;22.92;5.15;;;5.40;99.90;;;;;;4984643;28;20069;-72
2023/02/11 04:41:57;;;;;;;25.30;5.10;;;5.50;99.90;;;;;;4970410;28;20031;-72
2023/02/11 04:44:22;;;;;;;17.38;5.05;;;5.50;99.90;;;;;;4974907;28;20031;-73
2023/02/11 04:46:48;;;;;;;17.65;4.22;;;5.60;99.90;;;;;;4969911;28;20097;-73
2023/02/11 04:49:15;;;;;;;21.95;4.63;;;5.60;99.90;;;;;;4972504;28;20109;-74
2023/02/11 04:51:42;;;;;;;18.77;4.72;;;5.60;99.90;;;;;;4968485;28;20608;-72
2023/02/11 04:54:07;;;;;;;21.85;4.38;;;5.60;99.90;;;;;;4970834;28;20705;-73
2023/02/11 04:56:33;;;;;;;22.30;5.30;;;5.70;99.90;;;;;;4975574;28;20038;-72
2023/02/11 04:58:59;;;;;;;24.08;4.85;;;5.70;99.90;;;;;;4980299;28;20407;-72
2023/02/11 05:01:24;;;;;;;14.07;3.53;;;5.70;99.90;;;;;;4972117;28;20046;-72
2023/02/11 05:03:50;;;;;;;15.70;4.20;;;5.70;99.90;;;;;;4978958;28;20506;-72
2023/02/11 05:06:16;;;;;;;15.98;4.80;;;5.80;99.90;;;;;;4980400;28;20487;-72
2023/02/11 05:08:42;;;;;;;26.20;4.40;;;5.70;99.90;;;;;;4981978;28;20035;-72
2023/02/11 05:11:13;;;;;;;21.17;4.80;;;5.80;99.90;;;;;;4966143;28;20057;-75
2023/02/11 05:13:38;;;;;;;19.83;4.40;;;5.80;99.90;;;;;;4973585;28;20062;-72
2023/02/11 05:16:04;;;;;;;20.38;4.28;;;5.80;99.90;;;;;;4976895;28;20059;-73
2023/02/11 05:18:30;;;;;;;20.55;4.30;;;5.80;99.90;;;;;;4968483;28;20039;-74
2023/02/11 05:20:56;;;;;;;31.42;5.63;;;5.90;99.90;;;;;;4969945;28;20058;-72
2023/02/11 05:23:21;;;;;;;16.27;4.93;;;5.90;99.90;;;;;;4977189;28;20104;-73
2023/02/11 05:25:47;;;;;;;17.35;5.55;;;5.90;99.90;;;;;;4972067;28;20042;-73
2023/02/11 05:28:13;;;;;;;17.35;4.90;;;5.90;99.90;;;;;;4967234;28;20035;-72
2023/02/11 05:30:38;;;;;;;13.73;4.80;;;5.90;99.90;;;;;;4971532;28;20058;-74
2023/02/11 05:33:04;;;;;;;34.67;7.70;;;5.90;99.90;;;;;;4967604;28;20117;-72
2023/02/11 05:35:29;;;;;;;15.75;4.88;;;5.90;99.90;;;;;;4966604;28;20038;-72
2023/02/11 05:37:55;;;;;;;12.68;4.75;;;5.90;99.90;;;;;;4971720;28;20031;-73
2023/02/11 05:40:20;;;;;;;15.90;4.18;;;5.90;99.90;;;;;;4968490;28;20097;-73
2023/02/11 05:42:46;;;;;;;32.80;6.43;;;5.90;99.90;;;;;;4976462;28;20023;-72
2023/02/11 05:45:12;;;;;;;23.80;5.88;;;5.90;99.90;;;;;;4968665;28;20022;-73
2023/02/11 05:47:37;;;;;;;15.18;5.32;;;6.00;99.90;;;;;;4968154;28;20118;-72
2023/02/11 05:50:03;;;;;;;16.33;4.57;;;6.00;99.90;;;;;;4974050;28;20031;-73
2023/02/11 05:52:29;;;;;;;25.35;6.10;;;6.00;99.90;;;;;;4968576;28;20035;-72
2023/02/11 05:54:54;;;;;;;21.27;6.53;;;6.00;99.90;;;;;;4979959;28;20038;-74
2023/02/11 05:57:20;;;;;;;24.50;5.75;;;6.00;99.90;;;;;;4985737;28;20153;-73
2023/02/11 05:59:45;;;;;;;16.30;4.80;;;6.00;99.90;;;;;;4982458;28;20488;-73
2023/02/11 06:02:11;;;;;;;12.70;4.55;;;6.00;99.90;;;;;;4982604;28;20391;-72
2023/02/11 06:04:37;;;;;;;15.75;4.63;;;5.90;99.90;;;;;;4979363;28;20088;-72
2023/02/11 06:07:03;;;;;;;17.58;5.47;;;5.90;99.90;;;;;;4978128;28;20390;-73
2023/02/11 06:09:29;;;;;;;19.80;6.93;;;5.90;99.90;;;;;;4975212;28;20057;-72
2023/02/11 06:11:55;;;;;;;18.13;4.65;;;6.00;99.90;;;;;;4981919;28;20121;-73
2023/02/11 06:14:20;;;;;;;20.85;5.60;;;6.00;99.90;;;;;;4981834;28;20112;-72
2023/02/11 06:16:46;;;;;;;18.45;5.18;;;6.00;99.90;;;;;;4988495;28;20038;-72
2023/02/11 06:19:12;;;;;;;19.33;5.40;;;6.00;99.90;;;;;;4978589;28;20722;-72
2023/02/11 06:21:38;;;;;;;26.42;5.90;;;6.00;99.90;;;;;;4971977;28;20045;-74
2023/02/11 06:24:05;;;;;;;29.52;5.93;;;6.00;99.90;;;;;;4980882;28;20035;-73
2023/02/11 06:26:30;;;;;;;20.45;5.43;;;6.00;99.90;;;;;;4978204;28;20391;-72
2023/02/11 06:28:59;;;;;;;21.38;6.78;;;5.90;99.90;;;;;;4981759;28;20030;-72
2023/02/11 06:31:24;;;;;;;18.48;5.40;;;6.00;99.90;;;;;;4981978;28;20061;-72
2023/02/11 06:33:50;;;;;;;22.30;5.90;;;5.90;99.90;;;;;;4974598;28;20035;-73
2023/02/11 06:36:18;;;;;;;22.95;5.97;;;6.00;99.90;;;;;;4976149;28;20058;-73
2023/02/11 06:38:45;;;;;;;19.50;6.90;;;6.00;99.90;;;;;;4980629;28;20038;-73
2023/02/11 06:41:15;;;;;;;21.98;5.28;;;6.00;99.90;;;;;;4975993;28;20546;-75
2023/02/11 06:43:41;;;;;;;22.35;5.80;;;6.00;99.90;;;;;;4974912;28;20399;-73
2023/02/11 06:46:08;;;;;;;18.50;5.55;;;6.00;99.90;;;;;;4980007;28;20034;-72
2023/02/11 06:48:34;;;;;;;26.83;6.57;;;6.00;99.90;;;;;;4971255;28;20039;-72
2023/02/11 06:51:05;;;;;;;24.75;6.13;;;6.00;99.90;;;;;;4981707;28;20096;-72
2023/02/11 06:53:34;;;;;;;21.23;6.07;;;6.00;99.90;;;;;;4971212;28;20039;-72
2023/02/11 06:56:04;;;;;;;23.67;6.18;;;6.00;99.90;;;;;;5001980;28;20046;-72
2023/02/11 06:58:30;;;;;;;31.67;6.22;;;6.00;99.90;;;;;;4977589;28;20041;-73
2023/02/11 07:00:55;;;;;;;19.05;6.75;;;6.10;99.90;;;;;;4973222;28;20027;-74
2023/02/11 07:03:21;;;;;;;18.65;5.88;;;6.10;99.90;;;;;;4985796;28;20495;-72
2023/02/11 07:05:46;;;;;;;26.50;6.30;;;6.10;99.90;;;;;;4970039;28;20637;-72
2023/02/11 07:08:12;;;;;;;17.15;5.55;;;6.10;99.90;;;;;;4977289;28;20484;-73
2023/02/11 07:10:37;;;;;;;21.73;7.60;;;6.10;99.90;;;;;;4970955;28;20403;-72
2023/02/11 07:13:03;;;;;;;19.90;6.65;;;6.10;99.90;;;;;;4974528;28;20081;-73
2023/02/11 07:15:28;;;;;;;26.20;7.30;;;6.10;99.90;;;;;;4974493;28;20030;-73
2023/02/11 07:17:54;;;;;;;22.80;6.95;;;6.10;99.90;;;;;;4972659;28;20438;-73
2023/02/11 07:20:19;;;;;;;19.25;6.13;;;6.10;99.90;;;;;;4970741;28;20043;-71
2023/02/11 07:22:45;;;;;;;21.13;6.85;;;6.10;99.90;;;;;;4970629;28;20108;-73
2023/02/11 07:25:11;;;;;;;31.63;6.90;;;6.20;99.90;;;;;;4974431;28;20042;-73
2023/02/11 07:27:36;;;;;;;18.50;6.93;;;6.20;99.90;;;;;;4970663;28;20037;-72
2023/02/11 07:30:03;;;;;;;20.80;7.38;;;6.20;99.90;;;;;;4977472;28;20034;-72
2023/02/11 07:32:28;;;;;;;20.77;6.57;;;6.20;99.90;;;;;;4970611;28;20039;-71
2023/02/11 07:34:54;;;;;;;28.50;6.57;;;6.20;99.90;;;;;;4976384;28;20440;-72
2023/02/11 07:37:19;;;;;;;20.55;6.85;;;6.20;99.90;;;;;;4983913;28;20042;-72
2023/02/11 07:39:45;;;;;;;22.30;5.75;;;6.30;99.90;;;;;;4970328;28;20129;-74
2023/02/11 07:42:10;;;;;;;19.80;7.75;;;6.30;99.90;;;;;;4970036;28;20039;-72
2023/02/11 07:44:36;;;;;;;22.63;7.82;;;6.30;99.90;;;;;;4965723;28;20042;-73
2023/02/11 07:47:02;;;;;;;25.10;6.90;;;6.30;99.90;;;;;;4969594;28;20058;-73
2023/02/11 07:49:28;;;;;;;22.15;7.35;;;6.40;99.90;;;;;;4969010;28;20034;-74
2023/02/11 07:51:54;;;;;;;28.63;7.63;;;6.40;99.90;;;;;;4971423;28;20084;-74
2023/02/11 07:54:20;;;;;;;28.23;6.32;;;6.40;99.90;;;;;;4974668;28;20591;-73
2023/02/11 07:56:45;;;;;;;26.83;8.45;;;6.40;99.90;;;;;;4969245;28;20031;-73
2023/02/11 07:59:11;;;;;;;20.13;6.18;;;6.40;99.90;;;;;;4969689;28;20053;-73
2023/02/11 08:01:37;;;;;;;23.20;7.75;;;6.50;99.90;;;;;;4976009;28;20399;-73
2023/02/11 08:04:03;;;;;;;24.55;7.50;;;6.50;99.90;;;;;;4973893;28;20102;-74
2023/02/11 08:06:31;;;;;;;20.02;6.45;;;6.50;99.90;;;;;;4976618;28;20053;-74
2023/02/11 08:09:02;;;;;;;25.50;7.30;;;6.60;99.90;;;;;;4966908;28;20089;-73
2023/02/11 08:11:28;;;;;;;26.08;7.15;;;6.60;99.90;;;;;;4968322;28;22644;-75
2023/02/11 08:13:55;;;;;;;20.98;7.38;;;6.60;99.90;;;;;;4972447;28;20510;-74
2023/02/11 08:16:20;;;;;;;21.95;8.23;;;6.70;99.90;;;;;;4968336;28;20047;-73
2023/02/11 08:18:47;;;;;;;23.35;7.32;;;6.70;99.90;;;;;;4975139;28;20038;-73
2023/02/11 08:21:12;;;;;;;24.25;7.78;;;6.70;99.90;;;;;;4970371;28;20183;-72
2023/02/11 08:23:39;;;;;;;21.40;7.25;;;6.80;99.90;;;;;;4968630;28;20141;-73
2023/02/11 08:26:08;;;;;;;27.55;8.32;;;6.80;99.90;;;;;;4976973;28;20097;-72
2023/02/11 08:28:37;;;;;;;20.40;8.13;;;6.90;99.90;;;;;;4967688;28;20057;-73
2023/02/11 08:31:14;;;;;;;20.87;7.10;;;6.90;99.90;;;;;;4970349;28;20043;-73
2023/02/11 08:33:40;;;;;;;26.30;8.43;;;6.90;99.90;;;;;;4977579;28;20085;-73
2023/02/11 08:36:10;;;;;;;26.13;7.57;;;6.90;99.90;;;;;;4971253;28;20039;-73
2023/02/11 08:38:37;;;;;;;22.00;7.45;;;7.00;99.90;;;;;;4969668;28;20604;-72
2023/02/11 08:41:02;;;;;;;25.50;9.10;;;7.00;99.90;;;;;;4968832;28;20046;-73
2023/02/11 08:43:28;;;;;;;24.83;8.20;;;7.00;99.90;;;;;;4968401;28;20042;-73
2023/02/11 08:45:53;;;;;;;25.45;8.23;;;7.00;99.90;;;;;;4968560;28;20141;-74
2023/02/11 08:48:19;;;;;;;26.00;7.43;;;7.10;99.90;;;;;;4974426;28;20554;-73
2023/02/11 08:50:45;;;;;;;22.75;6.13;;;7.10;99.90;;;;;;4968006;28;20069;-72
2023/02/11 08:53:10;;;;;;;17.38;6.88;;;7.10;99.90;;;;;;4973107;28;20046;-72
2023/02/11 08:55:37;;;;;;;19.42;6.43;;;7.10;99.90;;;;;;4967499;28;20066;-72
2023/02/11 08:58:02;;;;;;;23.80;6.82;;;7.20;99.90;;;;;;4969237;28;20051;-73
2023/02/11 09:00:28;;;;;;;19.63;6.85;;;7.20;99.90;;;;;;4976891;28;20139;-73
2023/02/11 09:02:54;;;;;;;20.85;7.93;;;7.20;99.90;;;;;;4969438;28;20034;-73
2023/02/11 09:05:20;;;;;;;21.73;7.55;;;7.30;99.90;;;;;;4987706;28;20478;-73
2023/02/11 09:07:46;;;;;;;21.85;7.20;;;7.30;99.90;;;;;;4984696;28;20054;-74
2023/02/11 09:10:11;;;;;;;24.50;8.00;;;7.30;99.90;;;;;;4968707;28;20074;-73
2023/02/11 09:12:37;;;;;;;22.83;7.63;;;7.40;99.90;;;;;;4968532;28;20064;-73
2023/02/11 09:15:03;;;;;;;22.05;8.25;;;7.40;99.90;;;;;;4983840;28;20133;-74
2023/02/11 09:17:28;;;;;;;19.30;7.45;;;7.50;99.90;;;;;;4972326;28;20042;-72
2023/02/11 09:19:57;;;;;;;21.08;8.27;;;7.50;99.90;;;;;;4978373;28;20038;-70
2023/02/11 09:22:22;;;;;;;23.17;7.32;;;7.60;99.90;;;;;;4974607;28;20124;-72
2023/02/11 09:24:48;;;;;;;22.50;7.43;;;7.60;99.90;;;;;;4976951;28;20480;-72
2023/02/11 09:27:14;;;;;;;17.58;7.82;;;7.60;99.90;;;;;;4972520;28;20030;-72
2023/02/11 09:29:39;;;;;;;20.55;7.78;;;7.70;99.90;;;;;;4980782;28;20606;-73
2023/02/11 09:32:05;;;;;;;24.05;9.85;;;7.70;99.90;;;;;;4975675;28;20614;-72
2023/02/11 09:34:30;;;;;;;22.50;8.20;;;7.80;99.90;;;;;;4968717;28;20109;-72
2023/02/11 09:36:56;;;;;;;20.20;8.80;;;7.80;99.90;;;;;;4975831;28;20391;-73
2023/02/11 09:39:21;;;;;;;22.20;7.75;;;7.80;99.90;;;;;;4968408;28;20083;-73
2023/02/11 09:42:05;;;;;;;20.23;8.10;;;7.90;99.90;;;;;;4971981;28;20077;-73
2023/02/11 09:44:33;;;;;;;18.73;7.18;;;7.90;99.90;;;;;;4968908;28;20038;-73
2023/02/11 09:47:05;;;;;;;23.40;9.15;;;8.00;99.90;;;;;;4984263;28;20676;-73
2023/02/11 09:49:38;;;;;;;23.33;7.63;;;8.10;99.90;;;;;;4970206;28;20035;-73
2023/02/11 09:52:12;;;;;;;20.02;7.55;;;8.10;99.90;;;;;;4971726;28;20049;-73
2023/02/11 09:54:55;;;;;;;19.42;7.43;;;8.10;99.90;;;;;;4967841;28;20057;-73
2023/02/11 09:57:21;;;;;;;21.23;7.35;;;8.20;99.90;;;;;;4959756;28;20041;-72
2023/02/11 09:59:48;;;;;;;19.35;7.45;;;8.20;99.90;;;;;;4970586;28;20035;-72
2023/02/11 10:02:57;;;;;;;19.63;7.53;;;8.30;99.90;;;;;;4969714;28;20511;-74
2023/02/11 10:05:52;;;;;;;22.05;8.00;;;8.40;99.90;;;;;;4929257;28;20520;-72
2023/02/11 10:08:56;;;;;;;32.13;8.98;;;8.40;99.90;;;;;;4980244;28;20050;-72
2023/02/11 10:11:42;;;;;;;16.75;6.50;;;8.50;99.90;;;;;;4981615;28;20042;-72
2023/02/11 10:14:27;;;;;;;18.55;7.18;;;8.50;99.90;;;;;;4988088;28;20069;-72
2023/02/11 10:17:28;;;;;;;16.63;7.43;;;8.60;99.90;;;;;;4967892;28;20525;-73
2023/02/11 10:20:07;;;;;;;18.17;7.18;;;8.60;99.90;;;;;;4984950;28;20504;-73
2023/02/11 10:22:43;;;;;;;21.90;8.45;;;8.70;99.90;;;;;;4988385;28;20030;-71
2023/02/11 10:25:34;;;;;;;18.90;6.65;;;8.70;99.90;;;;;;4984802;28;20038;-73
2023/02/11 10:28:08;;;;;;;17.88;7.55;;;8.70;99.90;;;;;;4958800;28;20610;-72
2023/02/11 10:30:39;;;;;;;15.20;7.38;;;8.70;99.90;;;;;;4987788;28;20050;-73
2023/02/11 10:33:29;;;;;;;19.55;6.75;;;8.70;99.90;;;;;;4967128;28;20050;-72
2023/02/11 10:35:55;;;;;;;20.55;7.38;;;8.80;99.90;;;;;;4984543;28;20097;-74
2023/02/11 10:38:20;;;;;;;14.55;7.10;;;8.80;99.90;;;;;;4986008;28;20037;-72
2023/02/11 10:40:46;;;;;;;16.60;7.18;;;8.80;99.90;;;;;;4987742;28;20030;-73
2023/02/11 10:43:14;;;;;;;18.30;7.82;;;8.90;99.90;;;;;;4989034;28;20062;-72
2023/02/11 10:45:45;;;;;;;17.00;7.78;;;9.00;99.90;;;;;;4989099;28;20092;-72
2023/02/11 10:48:38;;;;;;;20.05;6.90;;;9.10;99.90;;;;;;4989090;28;20541;-73
2023/02/11 10:51:15;;;;;;;17.33;7.70;;;9.30;99.90;;;;;;4989357;28;20054;-73
2023/02/11 10:53:41;;;;;;;16.25;7.28;;;9.30;99.90;;;;;;4985371;28;20642;-73
2023/02/11 10:56:11;;;;;;;20.15;6.68;;;9.50;99.90;;;;;;4987691;28;20047;-72
2023/02/11 10:58:59;;;;;;;31.08;7.22;;;9.60;99.90;;;;;;4986139;28;20789;-72
2023/02/11 11:01:47;;;;;;;14.38;5.97;;;9.60;99.90;;;;;;4985420;28;20444;-72
2023/02/11 11:04:39;;;;;;;19.25;6.50;;;9.70;99.90;;;;;;4976862;28;20132;-74
2023/02/11 11:07:22;;;;;;;14.70;6.15;;;9.90;99.90;;;;;;4988964;28;20414;-74
2023/02/11 11:10:04;;;;;;;12.55;5.80;;;10.00;99.90;;;;;;4992414;28;20034;-72
2023/02/11 11:12:42;;;;;;;18.45;5.88;;;10.00;99.90;;;;;;4972026;28;20129;-72
2023/02/11 11:15:20;;;;;;;10.95;5.45;;;10.10;99.90;;;;;;4987805;28;20053;-72
2023/02/11 11:17:47;;;;;;;15.52;6.15;;;10.10;99.90;;;;;;4988877;28;20045;-73
2023/02/11 11:20:19;;;;;;;14.52;6.22;;;10.20;99.90;;;;;;4978056;28;20034;-72
2023/02/11 11:22:47;;;;;;;16.05;6.53;;;10.20;99.90;;;;;;4990088;28;20403;-72
2023/02/11 11:25:28;;;;;;;10.75;5.60;;;10.30;99.90;;;;;;4994525;28;20133;-73
2023/02/11 11:27:57;;;;;;;13.90;6.18;;;10.40;99.90;;;;;;4990813;28;20042;-73
2023/02/11 11:30:32;;;;;;;6.82;3.47;;;10.50;99.90;;;;;;4988091;28;20030;-72
2023/02/11 11:32:59;;;;;;;13.90;4.38;;;10.60;99.90;;;;;;4988422;28;20506;-73
2023/02/11 11:35:27;;;;;;;8.45;3.03;;;10.80;99.90;;;;;;4970657;28;20034;-72
2023/02/11 11:38:02;;;;;;;8.63;3.50;;;10.90;99.90;;;;;;4988675;28;20030;-72
2023/02/11 11:40:31;;;;;;;7.05;2.70;;;11.00;99.90;;;;;;4989607;28;20821;-72
2023/02/11 11:43:02;;;;;;;5.95;3.15;;;11.00;99.90;;;;;;4975543;28;20107;-72
2023/02/11 11:45:28;;;;;;;11.15;2.65;;;11.00;99.90;;;;;;4990814;28;20045;-73
2023/02/11 11:48:18;;;;;;;5.32;2.90;;;11.10;99.90;;;;;;4970666;28;20027;-73
2023/02/11 11:50:49;;;;;;;8.07;2.78;;;11.10;99.90;;;;;;4992535;28;20046;-72
2023/02/11 11:53:34;;;;;;;7.70;2.80;;;11.10;99.90;;;;;;4988145;28;20061;-72
2023/02/11 11:56:23;;;;;;;6.53;2.50;;;11.20;99.90;;;;;;4971858;28;20038;-72
2023/02/11 11:58:49;;;;;;;7.65;2.50;;;11.20;99.90;;;;;;4973157;28;20024;-71
2023/02/11 12:01:43;;;;;;;5.07;2.33;;;11.20;99.90;;;;;;4971820;28;20045;-72
2023/02/11 12:04:09;;;;;;;5.57;2.30;;;11.20;99.90;;;;;;4987794;28;20034;-73
2023/02/11 12:06:56;;;;;;;5.78;2.58;;;11.20;99.90;;;;;;4989406;28;20041;-74
2023/02/11 12:09:22;;;;;;;6.28;3.03;;;11.20;99.90;;;;;;4960172;28;20768;-73
2023/02/11 12:12:09;;;;;;;4.75;2.45;;;11.00;99.90;;;;;;4966179;28;20030;-74
2023/02/11 12:15:02;;;;;;;6.82;2.30;;;10.90;99.90;;;;;;4965071;28;20396;-74
2023/02/11 12:17:48;;;;;;;9.77;2.20;;;10.90;99.90;;;;;;4982716;28;20454;-72
2023/02/11 12:20:46;;;;;;;5.30;2.15;;;10.80;99.90;;;;;;4966305;28;20069;-73
2023/02/11 12:23:59;;;;;;;6.38;2.60;;;10.70;99.90;;;;;;4957419;28;20031;-72
2023/02/11 12:26:46;;;;;;;7.28;3.33;;;10.60;99.90;;;;;;4974981;28;20030;-72
2023/02/11 12:29:49;;;;;;;7.00;2.95;;;10.50;99.90;;;;;;4967223;28;20042;-71
2023/02/11 12:32:38;;;;;;;4.70;2.15;;;10.50;99.90;;;;;;4967178;28;20035;-72
2023/02/11 12:35:31;;;;;;;12.68;2.85;;;10.60;99.90;;;;;;4968912;28;20043;-71
2023/02/11 12:38:14;;;;;;;3.60;1.98;;;10.70;99.90;;;;;;4973673;28;20491;-72
2023/02/11 12:41:11;;;;;;;9.30;2.65;;;10.80;99.90;;;;;;4960882;28;20726;-74
2023/02/11 12:43:39;;;;;;;4.15;2.17;;;10.80;99.90;;;;;;4965692;28;20165;-72
2023/02/11 12:46:32;;;;;;;5.32;2.00;;;10.90;99.90;;;;;;4967985;28;20121;-72
2023/02/11 12:49:17;;;;;;;7.18;2.47;;;10.90;99.90;;;;;;4966554;28;20042;-72
2023/02/11 12:52:37;;;;;;;7.18;2.13;;;11.00;99.90;;;;;;4993287;28;20043;-72
2023/02/11 12:55:28;;;;;;;4.68;2.08;;;11.10;99.90;;;;;;4906276;28;20047;-72
2023/02/11 12:57:56;;;;;;;8.07;2.03;;;11.10;99.90;;;;;;4967805;28;20517;-72
2023/02/11 13:00:57;;;;;;;6.60;2.45;;;11.10;99.90;;;;;;4968367;28;20041;-72
2023/02/11 13:03:23;;;;;;;;;;;11.00;99.90;;;;;;4966401;28;20380;-71
2023/02/11 13:05:56;;;;;;;7.07;2.13;;;11.00;99.90;;;;;;4968606;28;19924;-72
2023/02/11 13:08:30;;;;;;;7.90;2.70;;;11.10;99.90;;;;;;4968775;28;20491;-72
2023/02/11 13:11:10;;;;;;;3.72;2.10;;;11.10;99.90;;;;;;4966996;28;20046;-72
2023/02/11 13:13:59;;;;;;;7.05;2.17;;;11.20;99.90;;;;;;4968352;28;20062;-72